Time;durP1;ratioP1;P1;durP2;ratioP2;P2;SDS_P1;SDS_P2;PMS_P1;PMS_P2;Temp;Humidity;BMP_temperature;BMP_pressure;BME280_temperature;BME280_humidity;BME280_pressure;Samples;Min_cycle;Max_cycle;Signal;HPM_P1;HPM_P2
2022/08/22 00:02:36;;;;;;;7.88;1.80;;;24.60;99.90;;;;;;5050807;28;20025;-70
2022/08/22 00:05:07;;;;;;;6.43;2.00;;;24.60;99.90;;;;;;5050610;28;20025;-70
2022/08/22 00:07:55;;;;;;;7.20;2.15;;;24.60;99.90;;;;;;5050600;28;20032;-70
2022/08/22 00:10:34;;;;;;;7.57;1.92;;;24.70;99.90;;;;;;5050310;28;20103;-70
2022/08/22 00:13:06;;;;;;;8.32;2.00;;;24.60;99.90;;;;;;5050317;28;20028;-70
2022/08/22 00:15:46;;;;;;;10.70;2.33;;;24.70;99.90;;;;;;5050111;28;20029;-70
2022/08/22 00:18:17;;;;;;;11.60;2.33;;;24.60;99.90;;;;;;5050476;28;20143;-70
2022/08/22 00:21:02;;;;;;;6.97;2.30;;;24.60;99.90;;;;;;5050612;28;20083;-70
2022/08/22 00:24:07;;;;;;;7.50;2.05;;;24.50;99.90;;;;;;5050414;28;20033;-70
2022/08/22 00:26:43;;;;;;;8.73;2.30;;;24.60;99.90;;;;;;5050483;28;20032;-70
2022/08/22 00:29:18;;;;;;;6.90;2.00;;;24.50;99.90;;;;;;5049909;28;20401;-70
2022/08/22 00:31:48;;;;;;;;;;;24.50;99.90;;;;;;5050887;28;20109;-69
2022/08/22 00:34:24;;;;;;;10.40;2.47;;;24.40;99.90;;;;;;5050506;28;19905;-70
2022/08/22 00:37:21;;;;;;;8.07;1.98;;;24.40;99.90;;;;;;5050042;28;20033;-70
2022/08/22 00:40:06;;;;;;;8.23;2.15;;;24.40;99.90;;;;;;5050490;28;20021;-70
2022/08/22 00:42:41;;;;;;;8.90;2.45;;;24.40;99.90;;;;;;5050385;28;20029;-70
2022/08/22 00:45:34;;;;;;;7.05;2.20;;;24.40;99.90;;;;;;5048737;28;20405;-70
2022/08/22 00:48:21;;;;;;;9.52;2.42;;;24.40;99.90;;;;;;5050359;28;20098;-70
2022/08/22 00:50:56;;;;;;;9.63;2.30;;;24.40;99.90;;;;;;5050204;28;20098;-69
2022/08/22 00:53:55;;;;;;;5.60;1.98;;;24.40;99.90;;;;;;5050408;28;20033;-70
2022/08/22 00:56:48;;;;;;;7.43;1.80;;;24.40;99.90;;;;;;5050262;28;20424;-71
2022/08/22 00:59:22;;;;;;;7.07;1.92;;;24.40;99.90;;;;;;5053721;28;20119;-70
2022/08/22 01:02:11;;;;;;;9.13;2.40;;;24.40;99.90;;;;;;5054202;28;20039;-70
2022/08/22 01:04:46;;;;;;;9.85;2.15;;;24.40;99.90;;;;;;5054190;28;20595;-70
2022/08/22 01:07:33;;;;;;;11.02;2.10;;;24.30;99.90;;;;;;5054191;28;20063;-70
2022/08/22 01:10:36;;;;;;;8.07;2.10;;;24.20;99.90;;;;;;5054042;28;20422;-70
2022/08/22 01:13:38;;;;;;;13.65;2.60;;;24.20;99.90;;;;;;5053931;28;20032;-70
2022/08/22 01:16:33;;;;;;;6.80;1.80;;;24.20;99.90;;;;;;5053751;28;20410;-70
2022/08/22 01:19:18;;;;;;;8.55;1.90;;;24.10;99.90;;;;;;5053852;28;20057;-70
2022/08/22 01:22:38;;;;;;;8.35;2.40;;;24.20;99.90;;;;;;5053941;28;20358;-70
2022/08/22 01:25:38;;;;;;;9.88;2.35;;;24.20;99.90;;;;;;5031651;28;20080;-70
2022/08/22 01:28:26;;;;;;;8.57;2.00;;;24.10;99.90;;;;;;5052034;28;20397;-70
2022/08/22 01:31:19;;;;;;;9.20;2.42;;;24.10;99.90;;;;;;5053415;28;20037;-71
2022/08/22 01:34:10;;;;;;;12.70;2.35;;;24.10;99.90;;;;;;5053845;28;20025;-70
2022/08/22 01:36:51;;;;;;;11.25;2.10;;;24.10;99.90;;;;;;5053286;28;20077;-70
2022/08/22 01:39:55;;;;;;;8.52;1.92;;;24.00;99.90;;;;;;5053590;28;20028;-70
2022/08/22 01:42:37;;;;;;;7.78;1.83;;;24.00;99.90;;;;;;5053123;28;20029;-70
2022/08/22 01:45:26;;;;;;;7.90;2.22;;;24.00;99.90;;;;;;5053510;28;20470;-70
2022/08/22 01:48:11;;;;;;;8.23;2.20;;;23.90;99.90;;;;;;5053360;28;20079;-70
2022/08/22 01:51:15;;;;;;;11.43;2.30;;;23.90;99.90;;;;;;5053429;28;20017;-70
2022/08/22 01:54:08;;;;;;;10.48;1.83;;;23.90;99.90;;;;;;5053017;28;20100;-70
2022/08/22 01:56:43;;;;;;;6.25;2.05;;;24.00;99.90;;;;;;5052761;28;20507;-70
2022/08/22 01:59:16;;;;;;;8.13;1.92;;;23.90;99.90;;;;;;5053314;28;20523;-70
2022/08/22 02:02:08;;;;;;;7.70;2.58;;;24.00;99.90;;;;;;5052961;28;20473;-70
2022/08/22 02:04:56;;;;;;;9.63;2.35;;;24.00;99.90;;;;;;5052885;28;20040;-70
2022/08/22 02:07:28;;;;;;;8.65;2.33;;;23.90;99.90;;;;;;5051307;28;20033;-70
2022/08/22 02:10:03;;;;;;;7.07;2.10;;;23.90;99.90;;;;;;5052209;28;20028;-70
2022/08/22 02:12:41;;;;;;;7.40;2.10;;;23.80;99.90;;;;;;5052534;28;20059;-70
2022/08/22 02:15:23;;;;;;;9.40;2.30;;;23.80;99.90;;;;;;5052576;28;20112;-71
2022/08/22 02:17:55;;;;;;;10.73;2.17;;;23.70;99.90;;;;;;5052625;28;20382;-70
2022/08/22 02:20:26;;;;;;;6.68;2.08;;;23.80;99.90;;;;;;5052576;28;20090;-70
2022/08/22 02:22:58;;;;;;;8.05;1.90;;;23.90;99.90;;;;;;5052686;28;20151;-70
2022/08/22 02:25:46;;;;;;;6.45;1.70;;;23.90;99.90;;;;;;5052326;28;20059;-70
2022/08/22 02:28:22;;;;;;;4.85;1.83;;;23.90;99.90;;;;;;5052189;28;20135;-70
2022/08/22 02:31:14;;;;;;;9.23;1.92;;;23.90;99.90;;;;;;5052632;28;20025;-69
2022/08/22 02:33:56;;;;;;;11.40;2.22;;;23.90;99.90;;;;;;5049515;28;20052;-69
2022/08/22 02:36:45;;;;;;;6.95;1.88;;;24.00;99.90;;;;;;5052375;28;20347;-69
2022/08/22 02:39:17;;;;;;;10.68;2.08;;;24.00;99.90;;;;;;5052201;28;20028;-69
2022/08/22 02:41:52;;;;;;;6.82;1.83;;;24.00;99.90;;;;;;5051954;28;20028;-69
2022/08/22 02:44:26;;;;;;;10.02;2.28;;;23.90;99.90;;;;;;5050321;28;20052;-69
2022/08/22 02:47:11;;;;;;;9.38;2.17;;;23.80;99.90;;;;;;5051994;28;20478;-70
2022/08/22 02:50:01;;;;;;;10.27;2.30;;;23.70;99.90;;;;;;5052094;28;20061;-70
2022/08/22 02:52:54;;;;;;;10.35;2.75;;;23.70;99.90;;;;;;5052281;28;20351;-69
2022/08/22 02:55:39;;;;;;;10.00;2.20;;;23.70;99.90;;;;;;5051874;28;20044;-69
2022/08/22 02:58:10;;;;;;;7.03;1.95;;;23.80;99.90;;;;;;5052498;28;20377;-69
2022/08/22 03:00:57;;;;;;;7.03;2.38;;;23.80;99.90;;;;;;5052477;28;20029;-70
2022/08/22 03:03:27;;;;;;;6.07;1.90;;;23.70;99.90;;;;;;5052500;28;20423;-70
2022/08/22 03:06:25;;;;;;;6.90;2.10;;;23.70;99.90;;;;;;5051020;28;20147;-70
2022/08/22 03:09:31;;;;;;;8.93;2.28;;;23.70;99.90;;;;;;5052195;28;20108;-70
2022/08/22 03:12:00;;;;;;;;;;;23.60;99.90;;;;;;5052697;28;20028;-70
2022/08/22 03:14:34;;;;;;;8.45;2.13;;;23.60;99.90;;;;;;5051953;28;20355;-70
2022/08/22 03:17:00;;;;;;;5.75;2.25;;;23.60;99.90;;;;;;5052196;28;20110;-70
2022/08/22 03:19:50;;;;;;;9.68;2.47;;;23.50;99.90;;;;;;5052031;28;20029;-69
2022/08/22 03:22:44;;;;;;;7.47;2.00;;;23.50;99.90;;;;;;5049853;28;20437;-71
2022/08/22 03:25:35;;;;;;;8.18;2.00;;;23.50;99.90;;;;;;5052227;28;20050;-71
2022/08/22 03:28:14;;;;;;;8.65;1.95;;;23.50;99.90;;;;;;5052191;28;20048;-69
2022/08/22 03:30:56;;;;;;;8.23;1.88;;;23.40;99.90;;;;;;5052148;28;20104;-69
2022/08/22 03:33:30;;;;;;;6.15;1.80;;;23.50;99.90;;;;;;5052322;28;20055;-70
2022/08/22 03:36:05;;;;;;;12.38;2.28;;;23.40;99.90;;;;;;5051660;28;20512;-69
2022/08/22 03:38:31;;;;;;;7.57;2.15;;;23.40;99.90;;;;;;5051646;28;20174;-70
2022/08/22 03:41:22;;;;;;;8.98;2.53;;;23.30;99.90;;;;;;5051287;28;20539;-70
2022/08/22 03:44:44;;;;;;;10.13;2.38;;;23.30;99.90;;;;;;5051133;28;20044;-70
2022/08/22 03:47:32;;;;;;;4.68;1.65;;;23.20;99.90;;;;;;5051987;28;20025;-70
2022/08/22 03:49:58;;;;;;;9.30;1.95;;;23.20;99.90;;;;;;5051956;28;20426;-70
2022/08/22 03:53:06;;;;;;;7.30;2.00;;;23.20;99.90;;;;;;5051778;28;20104;-70
2022/08/22 03:56:03;;;;;;;13.55;2.40;;;23.10;99.90;;;;;;5052192;28;20061;-69
2022/08/22 03:58:34;;;;;;;9.63;2.17;;;23.10;99.90;;;;;;5052271;28;20036;-70
2022/08/22 04:01:10;;;;;;;6.88;1.83;;;23.20;99.90;;;;;;5052324;28;20074;-70
2022/08/22 04:04:11;;;;;;;11.35;2.38;;;23.20;99.90;;;;;;5052108;28;20247;-70
2022/08/22 04:07:11;;;;;;;6.93;2.30;;;23.20;99.90;;;;;;5051557;28;20025;-70
2022/08/22 04:09:46;;;;;;;5.15;2.17;;;23.20;99.90;;;;;;5051850;28;20044;-70
2022/08/22 04:12:41;;;;;;;6.83;2.00;;;23.20;99.90;;;;;;5051629;28;20021;-70
2022/08/22 04:15:16;;;;;;;7.80;2.33;;;23.10;99.90;;;;;;5051730;28;20025;-70
2022/08/22 04:18:00;;;;;;;7.13;1.95;;;23.10;99.90;;;;;;5052244;28;20113;-71
2022/08/22 04:20:49;;;;;;;8.52;2.00;;;23.10;99.90;;;;;;5052844;28;20021;-70
2022/08/22 04:23:38;;;;;;;5.93;2.25;;;23.10;99.90;;;;;;5052169;28;20045;-70
2022/08/22 04:26:22;;;;;;;12.35;2.40;;;23.00;99.90;;;;;;5049213;28;20041;-70
2022/08/22 04:29:10;;;;;;;9.50;2.00;;;23.00;99.90;;;;;;5052001;28;20052;-70
2022/08/22 04:32:03;;;;;;;7.53;2.08;;;23.00;99.90;;;;;;5052658;28;20024;-70
2022/08/22 04:35:12;;;;;;;7.85;2.13;;;23.00;99.90;;;;;;5056500;28;20108;-69
2022/08/22 04:38:10;;;;;;;5.32;2.08;;;23.00;99.90;;;;;;5044702;28;20497;-70
2022/08/22 04:40:38;;;;;;;7.85;2.30;;;23.10;99.90;;;;;;5056678;28;20112;-70
2022/08/22 04:43:21;;;;;;;7.57;2.28;;;23.10;99.90;;;;;;5056409;28;20025;-69
2022/08/22 04:46:21;;;;;;;10.43;2.50;;;23.10;99.90;;;;;;5056867;28;20473;-70
2022/08/22 04:49:04;;;;;;;7.63;1.90;;;23.20;99.90;;;;;;5056755;28;20029;-69
2022/08/22 04:51:36;;;;;;;10.85;2.40;;;23.20;99.90;;;;;;5056619;28;20063;-70
2022/08/22 04:54:40;;;;;;;6.50;1.70;;;23.20;99.90;;;;;;5054840;28;20418;-70
2022/08/22 04:57:25;;;;;;;11.95;2.83;;;23.20;99.90;;;;;;5056072;28;20458;-70
2022/08/22 04:59:59;;;;;;;10.80;2.35;;;23.20;99.90;;;;;;5056671;28;20040;-70
2022/08/22 05:02:26;;;;;;;5.15;1.60;;;23.30;99.90;;;;;;5056572;28;20029;-70
2022/08/22 05:05:04;;;;;;;10.77;2.50;;;23.30;99.90;;;;;;5056221;28;20106;-70
2022/08/22 05:07:40;;;;;;;8.90;2.28;;;23.40;99.90;;;;;;5056343;28;20021;-70
2022/08/22 05:10:12;;;;;;;;;;;23.40;99.90;;;;;;5056381;28;20437;-70
2022/08/22 05:12:48;;;;;;;7.75;1.80;;;23.40;99.90;;;;;;5055646;28;19905;-70
2022/08/22 05:15:20;;;;;;;5.70;1.45;;;23.70;99.90;;;;;;5055291;28;20717;-70
2022/08/22 05:17:50;;;;;;;4.82;2.00;;;23.80;99.90;;;;;;5055443;28;20452;-70
2022/08/22 05:20:21;;;;;;;7.00;1.88;;;24.40;99.90;;;;;;5055258;28;20550;-71
2022/08/22 05:22:53;;;;;;;6.90;1.75;;;25.60;99.90;;;;;;5055578;28;20336;-70
2022/08/22 05:25:25;;;;;;;7.82;1.77;;;27.00;99.90;;;;;;5055576;28;20025;-70
2022/08/22 05:28:01;;;;;;;9.02;1.60;;;28.30;99.90;;;;;;5053599;28;20049;-71
2022/08/22 05:30:30;;;;;;;5.07;1.65;;;29.20;99.90;;;;;;5055727;28;20143;-70
2022/08/22 05:33:05;;;;;;;7.00;1.85;;;30.10;99.90;;;;;;5055629;28;20020;-71
2022/08/22 05:35:41;;;;;;;4.72;1.30;;;30.70;99.90;;;;;;5055560;28;20067;-71
2022/08/22 05:38:13;;;;;;;8.18;1.50;;;31.00;99.90;;;;;;5055249;28;20052;-71
2022/08/22 05:40:41;;;;;;;7.35;1.67;;;31.90;99.90;;;;;;5055524;28;20474;-70
2022/08/22 05:43:10;;;;;;;7.10;2.05;;;32.90;99.90;;;;;;5055134;28;20035;-71
2022/08/22 05:45:39;;;;;;;7.00;1.42;;;34.20;99.90;;;;;;5054171;28;20029;-71
2022/08/22 05:48:24;;;;;;;3.88;1.25;;;35.60;99.70;;;;;;5055294;28;20025;-71
2022/08/22 05:51:04;;;;;;;10.75;1.60;;;36.30;98.00;;;;;;5055095;28;20021;-72
2022/08/22 05:53:45;;;;;;;6.30;1.77;;;36.90;96.50;;;;;;5053423;28;20036;-72
2022/08/22 05:56:30;;;;;;;5.45;1.35;;;36.90;96.00;;;;;;5054418;28;20037;-71
2022/08/22 05:59:03;;;;;;;7.55;1.60;;;37.50;95.00;;;;;;5054561;28;20107;-70
2022/08/22 06:01:37;;;;;;;7.22;1.60;;;36.30;96.30;;;;;;5054424;28;20029;-70
2022/08/22 06:04:36;;;;;;;4.35;1.50;;;35.70;96.70;;;;;;5054592;28;20039;-71
2022/08/22 06:07:44;;;;;;;8.10;1.70;;;36.50;95.60;;;;;;5054296;28;20063;-71
2022/08/22 06:10:28;;;;;;;5.75;1.88;;;37.30;94.80;;;;;;5053965;28;20021;-70
2022/08/22 06:12:54;;;;;;;4.60;1.30;;;37.40;94.50;;;;;;5053980;28;20029;-70
2022/08/22 06:15:27;;;;;;;7.28;1.42;;;36.70;94.70;;;;;;5053744;28;20037;-71
2022/08/22 06:18:03;;;;;;;5.43;1.30;;;38.10;93.50;;;;;;5054496;28;20067;-70
2022/08/22 06:20:48;;;;;;;6.93;1.45;;;37.80;92.70;;;;;;5055080;28;20036;-70
2022/08/22 06:23:21;;;;;;;4.88;1.40;;;36.30;94.10;;;;;;5054910;28;20029;-71
2022/08/22 06:25:49;;;;;;;5.57;1.52;;;36.00;94.00;;;;;;5054968;28;20033;-70
2022/08/22 06:28:22;;;;;;;7.43;1.60;;;36.40;93.70;;;;;;5054061;28;20120;-71
2022/08/22 06:30:52;;;;;;;4.55;1.25;;;36.60;93.50;;;;;;5054596;28;20066;-70
2022/08/22 06:33:28;;;;;;;6.95;1.52;;;36.00;93.90;;;;;;5054397;28;20369;-70
2022/08/22 06:39:14;;;;;;;5.75;1.20;;;35.30;94.00;;;;;;5054562;28;20039;-70
2022/08/22 06:41:48;;;;;;;7.53;1.30;;;36.00;94.20;;;;;;5043811;28;20020;-67
2022/08/22 06:44:21;;;;;;;3.53;1.10;;;37.90;92.10;;;;;;5034185;28;20474;-69
2022/08/22 06:46:52;;;;;;;13.18;1.88;;;37.70;91.20;;;;;;5034543;28;20071;-67
2022/08/22 06:49:53;;;;;;;371.10;32.08;;;38.70;91.10;;;;;;5033009;28;20035;-68
2022/08/22 06:52:24;;;;;;;26.88;4.07;;;40.70;90.10;;;;;;5033744;28;20021;-69
2022/08/22 06:54:59;;;;;;;8.65;2.53;;;41.50;88.40;;;;;;5034550;28;20103;-72
2022/08/22 06:57:29;;;;;;;9.55;2.20;;;42.60;86.10;;;;;;5033949;28;20036;-71
2022/08/22 06:59:56;;;;;;;6.97;2.03;;;43.80;83.20;;;;;;5032062;28;20159;-71
2022/08/22 07:02:36;;;;;;;6.97;1.67;;;44.80;81.70;;;;;;5033349;28;20025;-70
2022/08/22 07:05:04;;;;;;;5.47;1.60;;;45.50;78.90;;;;;;5034527;28;20037;-70
2022/08/22 07:07:30;;;;;;;9.02;2.03;;;45.50;77.90;;;;;;5034137;28;20075;-70
2022/08/22 07:09:56;;;;;;;6.30;1.85;;;45.60;77.30;;;;;;5033733;28;20087;-71
2022/08/22 07:12:30;;;;;;;8.70;1.90;;;45.00;76.70;;;;;;5033774;28;20029;-70
2022/08/22 07:15:17;;;;;;;8.32;1.63;;;44.70;77.00;;;;;;5034030;28;20034;-70
2022/08/22 07:17:50;;;;;;;8.55;1.77;;;44.30;77.50;;;;;;5033482;28;20099;-70
2022/08/22 07:20:33;;;;;;;7.55;1.98;;;44.00;77.20;;;;;;5033813;28;20478;-70
2022/08/22 07:23:02;;;;;;;5.78;1.40;;;43.70;77.70;;;;;;5034032;28;20431;-70
2022/08/22 07:25:30;;;;;;;8.15;1.58;;;42.90;76.90;;;;;;5033439;28;20021;-70
2022/08/22 07:28:08;;;;;;;9.60;2.03;;;42.30;79.70;;;;;;5033364;28;20057;-70
2022/08/22 07:30:53;;;;;;;5.03;1.80;;;41.80;80.20;;;;;;5033682;28;20041;-70
2022/08/22 07:33:26;;;;;;;9.85;2.20;;;40.60;81.40;;;;;;5033380;28;20037;-70
2022/08/22 07:36:25;;;;;;;9.57;1.95;;;38.60;83.60;;;;;;5033740;28;20032;-69
2022/08/22 07:39:03;;;;;;;10.95;2.50;;;38.00;85.80;;;;;;5033329;28;20029;-70
2022/08/22 07:41:46;;;;;;;8.35;2.50;;;37.60;87.10;;;;;;5033581;28;20107;-69
2022/08/22 07:44:21;;;;;;;5.07;1.63;;;37.50;87.60;;;;;;5031902;28;20029;-70
2022/08/22 07:47:01;;;;;;;8.00;2.20;;;37.30;87.20;;;;;;5033308;28;20067;-69
2022/08/22 07:49:34;;;;;;;6.22;2.10;;;37.20;87.80;;;;;;5032346;28;20255;-70
2022/08/22 07:52:08;;;;;;;9.75;2.60;;;37.10;87.10;;;;;;5032327;28;20108;-69
2022/08/22 07:54:41;;;;;;;9.70;2.00;;;36.60;88.30;;;;;;5032181;28;20096;-70
2022/08/22 07:57:29;;;;;;;5.85;2.00;;;36.30;89.70;;;;;;5032130;28;20049;-71
2022/08/22 07:59:59;;;;;;;13.00;2.67;;;35.80;90.00;;;;;;5032098;28;20093;-70
2022/08/22 08:02:26;;;;;;;10.90;2.30;;;35.70;90.30;;;;;;5031767;28;20061;-69
2022/08/22 08:04:56;;;;;;;8.88;2.47;;;35.50;90.50;;;;;;5030998;28;20014;-70
2022/08/22 08:07:25;;;;;;;14.00;2.35;;;35.50;90.60;;;;;;5032454;28;20021;-72
2022/08/22 08:10:13;;;;;;;7.53;1.98;;;35.50;90.60;;;;;;5030965;28;20021;-70
2022/08/22 08:12:50;;;;;;;11.77;2.40;;;35.60;90.50;;;;;;5031990;28;20164;-70
2022/08/22 08:15:20;;;;;;;12.65;2.20;;;35.70;90.40;;;;;;5032492;28;20037;-71
2022/08/22 08:17:56;;;;;;;8.45;2.47;;;35.40;90.60;;;;;;5031946;28;20060;-70
2022/08/22 08:20:25;;;;;;;6.22;1.80;;;34.80;90.90;;;;;;5033176;28;20100;-70
2022/08/22 08:22:54;;;;;;;9.15;2.22;;;34.60;91.10;;;;;;5032902;28;20034;-70
2022/08/22 08:25:27;;;;;;;10.02;2.55;;;34.50;91.30;;;;;;5032629;28;20156;-70
2022/08/22 08:30:52;;;;;;;10.15;2.53;;;34.50;91.50;;;;;;5032680;28;20040;-70
2022/08/22 08:33:21;;;;;;;6.97;1.92;;;34.80;91.40;;;;;;5032892;28;20095;-70
2022/08/22 08:35:56;;;;;;;7.43;1.88;;;34.70;90.90;;;;;;5032342;28;20026;-70
2022/08/22 08:38:30;;;;;;;6.00;1.80;;;34.50;91.30;;;;;;5032815;28;20026;-72
2022/08/22 08:41:07;;;;;;;10.80;2.28;;;34.00;91.80;;;;;;5033312;28;20362;-71
2022/08/22 08:43:45;;;;;;;8.07;2.20;;;33.40;92.60;;;;;;5033023;28;20362;-71
2022/08/22 08:46:41;;;;;;;7.00;2.00;;;33.50;92.30;;;;;;5032647;28;20052;-70
2022/08/22 08:49:19;;;;;;;8.45;2.10;;;33.50;92.10;;;;;;5033220;28;20030;-71
2022/08/22 08:52:12;;;;;;;7.13;1.83;;;32.80;92.30;;;;;;5031953;28;20470;-70
2022/08/22 08:54:42;;;;;;;8.63;2.08;;;32.90;92.00;;;;;;5032576;28;20022;-71
2022/08/22 08:57:48;;;;;;;5.30;1.90;;;33.10;92.40;;;;;;5032474;28;20049;-71
2022/08/22 09:00:27;;;;;;;6.80;2.13;;;33.20;92.30;;;;;;5031967;28;20057;-71
2022/08/22 09:03:16;;;;;;;5.55;1.80;;;33.00;92.10;;;;;;5032463;28;20030;-71
2022/08/22 09:05:54;;;;;;;8.60;1.80;;;32.80;92.40;;;;;;5032631;28;20438;-70
2022/08/22 09:08:55;;;;;;;11.45;1.98;;;32.60;92.70;;;;;;5032539;28;20032;-70
2022/08/22 09:11:49;;;;;;;11.93;2.38;;;32.80;92.70;;;;;;5032238;28;20029;-70
2022/08/22 09:14:21;;;;;;;7.43;2.22;;;32.60;92.90;;;;;;5032492;28;20025;-70
2022/08/22 09:17:04;;;;;;;4.75;1.75;;;32.60;93.00;;;;;;5032333;28;20049;-70
2022/08/22 09:19:49;;;;;;;8.43;1.77;;;32.40;92.80;;;;;;5034575;28;20117;-70
2022/08/22 09:22:46;;;;;;;6.93;1.80;;;32.70;92.60;;;;;;5034491;28;20037;-70
2022/08/22 09:25:56;;;;;;;5.63;1.75;;;32.50;92.40;;;;;;5036032;28;20470;-70
2022/08/22 09:28:28;;;;;;;7.53;1.92;;;32.60;92.50;;;;;;5035613;28;20044;-70
2022/08/22 09:31:28;;;;;;;6.70;1.83;;;32.40;92.20;;;;;;5035867;28;20450;-70
2022/08/22 09:34:21;;;;;;;7.68;1.95;;;32.40;92.90;;;;;;5036046;28;20052;-70
2022/08/22 09:37:10;;;;;;;6.93;1.75;;;32.50;93.10;;;;;;5035465;28;20548;-70
2022/08/22 09:40:20;;;;;;;9.00;1.75;;;32.60;93.10;;;;;;5035883;28;20119;-70
2022/08/22 09:43:16;;;;;;;6.40;1.50;;;32.80;93.50;;;;;;5029863;28;20048;-71
2022/08/22 09:45:49;;;;;;;8.27;1.83;;;32.60;94.60;;;;;;5035606;28;20112;-70
2022/08/22 09:48:20;;;;;;;11.43;2.10;;;32.60;94.90;;;;;;5035703;28;20029;-70
2022/08/22 09:51:10;;;;;;;9.55;2.30;;;32.40;95.10;;;;;;5035988;28;20013;-70
2022/08/22 09:53:36;;;;;;;10.23;1.70;;;32.40;94.80;;;;;;5035694;28;20029;-70
2022/08/22 09:56:20;;;;;;;14.98;2.30;;;32.40;94.90;;;;;;5035263;28;20079;-70
2022/08/22 09:59:33;;;;;;;8.25;1.90;;;32.50;95.30;;;;;;5035450;28;20071;-70
2022/08/22 10:02:35;;;;;;;8.63;1.95;;;32.60;95.10;;;;;;5032475;28;20076;-70
2022/08/22 10:05:06;;;;;;;10.50;2.10;;;32.40;95.40;;;;;;5029353;28;20069;-71
2022/08/22 10:08:11;;;;;;;13.13;2.25;;;32.30;96.20;;;;;;5033159;28;20178;-70
2022/08/22 10:11:01;;;;;;;8.80;1.60;;;32.40;96.40;;;;;;5029193;28;20517;-70
2022/08/22 10:13:48;;;;;;;16.77;2.60;;;32.30;96.70;;;;;;5032522;28;20508;-71
2022/08/22 10:16:14;;;;;;;8.95;2.00;;;32.10;97.60;;;;;;5031961;28;20160;-70
2022/08/22 10:18:55;;;;;;;7.93;1.52;;;32.10;98.30;;;;;;5033002;28;20025;-70
2022/08/22 10:21:33;;;;;;;11.73;1.80;;;32.20;98.80;;;;;;5033030;28;20129;-71
2022/08/22 10:24:23;;;;;;;7.82;1.80;;;32.10;99.30;;;;;;5032892;28;20160;-70
2022/08/22 10:26:53;;;;;;;16.90;2.10;;;31.90;99.80;;;;;;5032812;28;20036;-71
2022/08/22 10:29:40;;;;;;;9.07;1.60;;;31.70;99.90;;;;;;5032130;28;20050;-69
2022/08/22 10:32:22;;;;;;;8.68;1.83;;;31.70;99.70;;;;;;5032321;28;20606;-71
2022/08/22 10:34:53;;;;;;;8.88;2.30;;;31.70;99.70;;;;;;5015999;28;20025;-70
2022/08/22 10:37:38;;;;;;;11.55;2.30;;;31.50;99.90;;;;;;5032555;28;20037;-69
2022/08/22 10:40:49;;;;;;;13.98;2.22;;;31.60;99.90;;;;;;5034437;28;20025;-70
2022/08/22 10:43:39;;;;;;;12.48;2.35;;;31.60;99.90;;;;;;5032792;28;20131;-70
2022/08/22 10:46:39;;;;;;;6.63;1.77;;;31.60;99.90;;;;;;5015559;28;20021;-70
2022/08/22 10:49:33;;;;;;;10.60;2.10;;;31.60;99.90;;;;;;5014560;28;20033;-70
2022/08/22 10:52:09;;;;;;;9.75;1.80;;;31.70;99.90;;;;;;5005076;28;20474;-70
2022/08/22 10:54:42;;;;;;;;;;;31.60;99.90;;;;;;5032105;28;20025;-70
2022/08/22 10:57:38;;;;;;;10.10;1.80;;;31.40;99.90;;;;;;5031436;28;19917;-70
2022/08/22 11:00:12;;;;;;;13.00;1.98;;;31.30;99.90;;;;;;5031515;28;20108;-70
2022/08/22 11:02:52;;;;;;;13.10;1.75;;;31.20;99.90;;;;;;5031156;28;20036;-70
2022/08/22 11:05:33;;;;;;;7.88;1.77;;;31.00;99.90;;;;;;5031581;28;20128;-70
2022/08/22 11:08:32;;;;;;;7.40;1.75;;;31.20;99.90;;;;;;5031635;28;20536;-70
2022/08/22 11:11:07;;;;;;;13.15;2.13;;;31.10;99.90;;;;;;5031159;28;20410;-71
2022/08/22 11:13:39;;;;;;;13.75;2.10;;;31.10;99.90;;;;;;5014410;28;20505;-70
2022/08/22 11:16:28;;;;;;;11.73;1.88;;;30.90;99.90;;;;;;5032230;28;20040;-71
2022/08/22 11:19:08;;;;;;;9.73;2.10;;;30.90;99.90;;;;;;5034341;28;20025;-71
2022/08/22 11:22:00;;;;;;;15.35;2.20;;;31.10;99.90;;;;;;5033971;28;20101;-70
2022/08/22 11:24:57;;;;;;;6.20;1.80;;;31.30;99.90;;;;;;5034073;28;20034;-70
2022/08/22 11:28:00;;;;;;;10.57;2.00;;;31.40;99.90;;;;;;5032022;28;20393;-70
2022/08/22 11:30:52;;;;;;;6.03;1.70;;;31.60;99.90;;;;;;5034053;28;20117;-70
2022/08/22 11:33:28;;;;;;;6.45;1.63;;;31.50;99.90;;;;;;5034229;28;20026;-71
2022/08/22 11:36:20;;;;;;;9.43;1.70;;;31.60;99.90;;;;;;5032307;28;20480;-70
2022/08/22 11:38:58;;;;;;;8.13;1.60;;;31.70;99.90;;;;;;5033094;28;20403;-71
2022/08/22 11:41:45;;;;;;;8.98;1.92;;;32.00;99.90;;;;;;5033839;28;20022;-70
2022/08/22 11:44:31;;;;;;;10.25;1.83;;;32.10;99.90;;;;;;5033038;28;20071;-71
2022/08/22 11:47:00;;;;;;;7.30;1.67;;;32.30;99.90;;;;;;5034022;28;20033;-71
2022/08/22 11:49:47;;;;;;;13.65;1.95;;;32.50;99.90;;;;;;5033620;28;20459;-70
2022/08/22 11:52:24;;;;;;;6.60;1.58;;;32.50;99.90;;;;;;5033811;28;20489;-70
2022/08/22 11:55:02;;;;;;;8.65;1.63;;;32.60;99.90;;;;;;5031819;28;20022;-71
2022/08/22 11:57:40;;;;;;;8.50;1.52;;;32.70;99.90;;;;;;5033130;28;20037;-71
2022/08/22 12:00:31;;;;;;;10.05;1.50;;;33.00;99.90;;;;;;5033808;28;20108;-71
2022/08/22 12:03:22;;;;;;;9.15;1.48;;;33.10;99.90;;;;;;5033763;28;20037;-71
2022/08/22 12:05:50;;;;;;;7.22;1.80;;;33.30;99.90;;;;;;5033419;28;20080;-70
2022/08/22 12:08:28;;;;;;;7.55;1.83;;;33.40;99.90;;;;;;5033007;28;20044;-71
2022/08/22 12:11:11;;;;;;;8.85;1.50;;;33.10;99.90;;;;;;5032855;28;20170;-71
2022/08/22 12:13:40;;;;;;;14.88;2.20;;;33.20;99.90;;;;;;5033381;28;20018;-72
2022/08/22 12:16:36;;;;;;;10.85;1.83;;;33.10;99.90;;;;;;5033138;28;20021;-71
2022/08/22 12:19:38;;;;;;;10.35;1.75;;;33.30;99.90;;;;;;5033379;28;20063;-71
2022/08/22 12:22:23;;;;;;;10.07;1.75;;;33.40;99.90;;;;;;5033272;28;20021;-71
2022/08/22 12:25:13;;;;;;;8.82;1.77;;;33.20;99.90;;;;;;5033528;28;20028;-71
2022/08/22 12:28:02;;;;;;;6.47;1.63;;;33.20;99.90;;;;;;5033045;28;20532;-71
2022/08/22 12:30:40;;;;;;;9.38;1.88;;;33.10;99.90;;;;;;5033472;28;20112;-70
2022/08/22 12:33:18;;;;;;;10.02;1.60;;;33.00;99.90;;;;;;5033016;28;20168;-71
2022/08/22 12:36:03;;;;;;;8.65;1.40;;;32.70;99.90;;;;;;5033022;28;20102;-70
2022/08/22 12:39:06;;;;;;;13.38;1.58;;;32.60;99.90;;;;;;5033317;28;20091;-71
2022/08/22 12:41:35;;;;;;;9.95;1.65;;;32.70;99.90;;;;;;5032757;28;20026;-73
2022/08/22 12:44:24;;;;;;;9.55;1.85;;;32.90;99.90;;;;;;5033128;28;20039;-69
2022/08/22 12:47:15;;;;;;;8.80;1.80;;;32.90;99.90;;;;;;5031839;28;20105;-70
2022/08/22 12:50:06;;;;;;;8.40;1.70;;;32.90;99.90;;;;;;5033165;28;20112;-70
2022/08/22 12:52:55;;;;;;;8.80;1.80;;;32.90;99.90;;;;;;5032783;28;20022;-70
2022/08/22 12:55:24;;;;;;;5.70;1.35;;;32.70;99.90;;;;;;5035727;28;20406;-70
2022/08/22 12:57:58;;;;;;;8.65;1.80;;;32.80;99.90;;;;;;5035880;28;20033;-70
2022/08/22 13:00:37;;;;;;;10.65;1.73;;;33.00;99.90;;;;;;5036038;28;20037;-70
2022/08/22 13:03:09;;;;;;;7.97;1.50;;;32.20;99.90;;;;;;5036148;28;20029;-70
2022/08/22 13:05:37;;;;;;;7.25;1.40;;;32.00;99.90;;;;;;5036159;28;20474;-70
2022/08/22 13:08:07;;;;;;;8.77;1.48;;;32.00;99.90;;;;;;5036243;28;20056;-70
2022/08/22 13:10:50;;;;;;;6.78;1.27;;;32.00;99.90;;;;;;5035867;28;20429;-70
2022/08/22 13:13:27;;;;;;;8.23;1.20;;;32.00;99.90;;;;;;5035994;28;20026;-71
2022/08/22 13:15:59;;;;;;;7.45;1.40;;;32.00;99.90;;;;;;5036058;28;20021;-70
2022/08/22 13:18:31;;;;;;;8.20;1.63;;;31.90;99.90;;;;;;5036781;28;20437;-71
2022/08/22 13:21:02;;;;;;;8.90;1.40;;;31.70;99.90;;;;;;5036794;28;20052;-71
2022/08/22 13:23:43;;;;;;;9.15;1.67;;;31.60;99.90;;;;;;5036588;28;20029;-70
2022/08/22 13:26:17;;;;;;;8.90;1.67;;;31.50;99.90;;;;;;5036490;28;20033;-71
2022/08/22 13:29:09;;;;;;;7.60;1.40;;;31.30;99.90;;;;;;5036332;28;20048;-70
2022/08/22 13:31:38;;;;;;;7.20;1.50;;;31.30;99.90;;;;;;5036611;28;20061;-70
2022/08/22 13:34:12;;;;;;;9.48;1.65;;;31.10;99.90;;;;;;5036300;28;20405;-70
2022/08/22 13:36:49;;;;;;;5.88;1.23;;;31.00;99.90;;;;;;5036861;28;20037;-71
2022/08/22 13:39:15;;;;;;;7.15;1.40;;;30.90;99.90;;;;;;5036236;28;20021;-71
2022/08/22 13:42:02;;;;;;;8.07;1.48;;;30.60;99.90;;;;;;5036036;28;20022;-71
2022/08/22 13:44:41;;;;;;;11.73;1.52;;;30.60;99.90;;;;;;5036589;28;20040;-71
2022/08/22 13:47:13;;;;;;;9.82;1.33;;;30.40;99.90;;;;;;5036683;28;20140;-71
2022/08/22 13:49:46;;;;;;;9.73;1.65;;;29.90;99.90;;;;;;5036559;28;20021;-70
2022/08/22 13:52:27;;;;;;;9.07;1.60;;;29.60;99.90;;;;;;5035201;28;20390;-71
2022/08/22 13:54:59;;;;;;;7.20;1.55;;;29.50;99.90;;;;;;5035513;28;20079;-71
2022/08/22 13:57:35;;;;;;;6.65;1.48;;;29.60;99.90;;;;;;5034827;28;20103;-71
2022/08/22 14:00:11;;;;;;;8.57;1.63;;;29.60;99.90;;;;;;5034858;28;20029;-71
2022/08/22 14:02:40;;;;;;;;;;;29.40;99.90;;;;;;5035246;28;20102;-70
2022/08/22 14:05:18;;;;;;;7.57;1.25;;;29.50;99.90;;;;;;5032462;28;19984;-71
2022/08/22 14:07:56;;;;;;;7.32;1.30;;;29.70;99.90;;;;;;5033401;28;20030;-71